Time;durP1;ratioP1;P1;durP2;ratioP2;P2;SDS_P1;SDS_P2;PMS_P1;PMS_P2;Temp;Humidity;BMP_temperature;BMP_pressure;BME280_temperature;BME280_humidity;BME280_pressure;Samples;Min_cycle;Max_cycle;Signal;HPM_P1;HPM_P2
2023/03/02 00:01:47;;;;;;;;;;;;;;;2.05;62.03;92557.50;2058162;69;20084;-78
2023/03/02 00:04:25;;;;;;;;;;;;;;;2.23;61.64;92553.56;2057813;69;20050;-77
2023/03/02 00:06:52;;;;;;;;;;;;;;;2.32;61.27;92557.06;2057779;69;20069;-78
2023/03/02 00:09:18;;;;;;;;;;;;;;;2.40;61.48;92555.75;2058262;69;20042;-76
2023/03/02 00:11:44;;;;;;;;;;;;;;;2.46;60.69;92555.53;2058365;69;20079;-76
2023/03/02 00:14:10;;;;;;;;;;;;;;;2.43;61.56;92549.06;2057140;69;20042;-80
2023/03/02 00:16:35;;;;;;;;;;;;;;;2.44;61.99;92549.81;2057290;69;20343;-77
2023/03/02 00:19:01;;;;;;;;;;;;;;;2.45;61.72;92543.69;2057811;69;20489;-80
2023/03/02 00:21:27;;;;;;;;;;;;;;;2.55;61.45;92544.56;2057902;69;20061;-78
2023/03/02 00:23:52;;;;;;;;;;;;;;;2.56;61.49;92542.50;2057966;69;20110;-78
2023/03/02 00:26:18;;;;;;;;;;;;;;;2.48;61.35;92542.56;2058111;69;20174;-79
2023/03/02 00:28:44;;;;;;;;;;;;;;;2.40;61.45;92541.13;2058066;69;20065;-78
2023/03/02 00:31:09;;;;;;;;;;;;;;;2.42;62.31;92544.06;2058005;69;20134;-79
2023/03/02 00:33:38;;;;;;;;;;;;;;;2.45;62.38;92546.47;2057532;69;20062;-78
2023/03/02 00:36:03;;;;;;;;;;;;;;;2.38;62.15;92544.44;2057883;69;20124;-76
2023/03/02 00:38:45;;;;;;;;;;;;;;;2.43;61.90;92549.06;2056927;69;20070;-76
2023/03/02 00:41:12;;;;;;;;;;;;;;;2.40;61.50;92544.63;2055832;69;20092;-76
2023/03/02 00:43:37;;;;;;;;;;;;;;;2.42;61.19;92541.28;2057490;69;20054;-76
2023/03/02 00:46:09;;;;;;;;;;;;;;;2.33;62.12;92544.66;2058324;69;20049;-75
2023/03/02 00:48:35;;;;;;;;;;;;;;;2.38;61.69;92544.44;2058364;69;20056;-75
2023/03/02 00:51:00;;;;;;;;;;;;;;;2.33;62.85;92531.50;2058024;69;20145;-78
2023/03/02 00:53:25;;;;;;;;;;;;;;;2.35;62.66;92528.91;2057827;69;20069;-77
2023/03/02 00:55:52;;;;;;;;;;;;;;;2.36;62.08;92518.53;2057498;69;20058;-79
2023/03/02 00:58:18;;;;;;;;;;;;;;;2.31;62.20;92525.78;2058057;69;20493;-75
2023/03/02 01:00:44;;;;;;;;;;;;;;;2.31;62.12;92530.59;2058265;69;20078;-74
2023/03/02 01:03:11;;;;;;;;;;;;;;;2.17;62.20;92532.88;2058158;69;20117;-78
2023/03/02 01:05:37;;;;;;;;;;;;;;;2.13;62.29;92524.19;2057822;69;20629;-77
2023/03/02 01:08:03;;;;;;;;;;;;;;;2.09;62.86;92523.81;2057697;69;20127;-79
2023/03/02 01:10:30;;;;;;;;;;;;;;;2.15;62.97;92521.56;2055037;69;20057;-79
2023/03/02 01:12:56;;;;;;;;;;;;;;;2.15;62.61;92522.31;2058081;69;20229;-78
2023/03/02 01:15:21;;;;;;;;;;;;;;;2.05;62.55;92507.53;2058046;69;20514;-79
2023/03/02 01:17:47;;;;;;;;;;;;;;;1.91;62.91;92514.59;2058313;69;20466;-78
2023/03/02 01:20:12;;;;;;;;;;;;;;;1.97;63.43;92515.91;2057733;69;20066;-78
2023/03/02 01:22:38;;;;;;;;;;;;;;;2.06;63.21;92511.03;2057829;69;20501;-77
2023/03/02 01:25:04;;;;;;;;;;;;;;;2.19;62.55;92511.56;2057642;69;20046;-78
2023/03/02 01:27:29;;;;;;;;;;;;;;;1.64;64.40;92509.47;2057211;69;20058;-78
2023/03/02 01:29:55;;;;;;;;;;;;;;;1.86;63.53;92518.31;2057619;69;20045;-80
2023/03/02 01:32:21;;;;;;;;;;;;;;;1.88;63.88;92512.94;2054953;69;20042;-78
2023/03/02 01:34:46;;;;;;;;;;;;;;;1.88;63.10;92510.94;2057736;69;20069;-80
2023/03/02 01:37:12;;;;;;;;;;;;;;;1.94;62.64;92507.94;2057925;69;20058;-78
2023/03/02 01:39:37;;;;;;;;;;;;;;;1.68;63.90;92501.53;2058135;69;20085;-79
2023/03/02 01:42:03;;;;;;;;;;;;;;;1.76;63.58;92505.03;2058148;69;20197;-78
2023/03/02 01:44:45;;;;;;;;;;;;;;;1.81;64.07;92497.78;2057496;69;20054;-76
2023/03/02 01:47:26;;;;;;;;;;;;;;;1.82;64.33;92501.31;2057693;69;20069;-78
2023/03/02 01:50:03;;;;;;;;;;;;;;;1.89;64.17;92495.75;2057082;69;20058;-78
2023/03/02 01:52:37;;;;;;;;;;;;;;;1.81;63.26;92488.72;2054475;69;20061;-79
2023/03/02 01:55:04;;;;;;;;;;;;;;;1.58;65.05;92497.84;2056750;69;20073;-77
2023/03/02 01:57:33;;;;;;;;;;;;;;;1.71;64.38;92492.09;2057982;69;20482;-79
2023/03/02 02:00:00;;;;;;;;;;;;;;;1.63;64.32;92499.69;2057448;69;20109;-78
2023/03/02 02:02:26;;;;;;;;;;;;;;;1.63;64.79;92494.13;2057952;69;20490;-79
2023/03/02 02:04:53;;;;;;;;;;;;;;;1.65;64.26;92493.56;2057223;69;20146;-78
2023/03/02 02:07:19;;;;;;;;;;;;;;;1.59;64.01;92493.03;2058096;69;20054;-78
2023/03/02 02:09:46;;;;;;;;;;;;;;;1.63;64.80;92501.72;2058104;69;20124;-77
2023/03/02 02:12:13;;;;;;;;;;;;;;;1.72;64.19;92501.88;2057182;69;20066;-78
2023/03/02 02:14:39;;;;;;;;;;;;;;;1.58;64.07;92497.84;2058310;69;20062;-79
2023/03/02 02:17:05;;;;;;;;;;;;;;;1.56;64.87;92494.91;2057899;69;20046;-79
2023/03/02 02:19:57;;;;;;;;;;;;;;;1.63;64.35;92493.41;2057531;69;20057;-78
2023/03/02 02:22:28;;;;;;;;;;;;;;;1.59;64.04;92501.34;2057820;69;20046;-78
2023/03/02 02:24:57;;;;;;;;;;;;;;;1.62;64.42;92495.44;2057953;69;20406;-77
2023/03/02 02:27:28;;;;;;;;;;;;;;;1.52;64.21;92495.28;2057913;69;20149;-76
2023/03/02 02:29:57;;;;;;;;;;;;;;;1.55;64.61;92490.63;2057365;69;20049;-76
2023/03/02 02:32:27;;;;;;;;;;;;;;;1.62;64.44;92489.88;2057205;69;20057;-78
2023/03/02 02:34:57;;;;;;;;;;;;;;;1.60;64.23;92486.91;2057797;69;20046;-77
2023/03/02 02:37:26;;;;;;;;;;;;;;;1.64;64.91;92481.72;2057221;69;20046;-77
2023/03/02 02:39:52;;;;;;;;;;;;;;;1.61;64.38;92484.91;2057861;69;20057;-77
2023/03/02 02:42:29;;;;;;;;;;;;;;;1.66;64.26;92481.94;2058254;69;20481;-78
2023/03/02 02:44:57;;;;;;;;;;;;;;;1.67;63.65;92482.66;2058013;69;20054;-77
2023/03/02 02:47:23;;;;;;;;;;;;;;;1.58;65.28;92486.00;2057590;69;20050;-76
2023/03/02 02:49:52;;;;;;;;;;;;;;;1.60;64.61;92489.69;2058042;69;20139;-78
2023/03/02 02:52:20;;;;;;;;;;;;;;;1.69;64.53;92486.34;2057488;69;20061;-77
2023/03/02 02:54:47;;;;;;;;;;;;;;;1.71;64.03;92486.53;2057064;69;20520;-77
2023/03/02 02:57:16;;;;;;;;;;;;;;;1.78;64.88;92488.53;2058136;69;20106;-78
2023/03/02 02:59:45;;;;;;;;;;;;;;;1.78;65.51;92485.75;2057571;69;20081;-77
2023/03/02 03:02:15;;;;;;;;;;;;;;;1.58;65.39;92483.22;2058018;69;20124;-78
2023/03/02 03:04:41;;;;;;;;;;;;;;;1.68;65.27;92481.34;2055458;69;20211;-78
2023/03/02 03:07:08;;;;;;;;;;;;;;;1.62;65.65;92487.09;2057978;69;20497;-80
2023/03/02 03:09:35;;;;;;;;;;;;;;;1.64;65.03;92490.06;2057195;69;20082;-76
2023/03/02 03:12:03;;;;;;;;;;;;;;;1.59;65.48;92487.47;2057963;69;20204;-79
2023/03/02 03:14:38;;;;;;;;;;;;;;;1.65;64.01;92485.25;2058172;69;20050;-78
2023/03/02 03:17:11;;;;;;;;;;;;;;;1.45;65.29;92473.81;2057473;69;20054;-79
2023/03/02 03:19:41;;;;;;;;;;;;;;;1.62;65.08;92473.25;2058071;69;20061;-77
2023/03/02 03:22:06;;;;;;;;;;;;;;;1.44;65.21;92464.03;2058259;69;20073;-78
2023/03/02 03:24:34;;;;;;;;;;;;;;;1.37;65.79;92478.63;2057755;69;20054;-79
2023/03/02 03:27:00;;;;;;;;;;;;;;;1.29;66.39;92474.41;2058063;69;20057;-81
2023/03/02 03:29:26;;;;;;;;;;;;;;;1.34;65.96;92468.66;2057640;69;20054;-76
2023/03/02 03:31:58;;;;;;;;;;;;;;;1.37;65.22;92472.34;2058162;69;20509;-77
2023/03/02 03:34:24;;;;;;;;;;;;;;;1.29;64.87;92471.63;2057716;69;20046;-78
2023/03/02 03:36:50;;;;;;;;;;;;;;;1.37;65.63;92470.31;2058169;69;20062;-78
2023/03/02 03:39:16;;;;;;;;;;;;;;;1.38;66.02;92471.81;2058209;69;20088;-78
2023/03/02 03:41:43;;;;;;;;;;;;;;;1.37;65.44;92475.13;2057672;69;20096;-78
2023/03/02 03:44:08;;;;;;;;;;;;;;;1.24;65.11;92468.50;2058088;69;20497;-78
2023/03/02 03:46:35;;;;;;;;;;;;;;;1.18;66.18;92469.97;2057373;69;20053;-78
2023/03/02 03:49:01;;;;;;;;;;;;;;;1.18;66.10;92467.19;2057425;69;20042;-75
2023/03/02 03:51:27;;;;;;;;;;;;;;;1.36;65.60;92468.84;2057593;69;20429;-77
2023/03/02 03:53:59;;;;;;;;;;;;;;;1.37;65.13;92467.53;2057613;69;20417;-77
2023/03/02 03:56:28;;;;;;;;;;;;;;;1.35;65.92;92477.72;2055568;69;20070;-78
2023/03/02 03:59:05;;;;;;;;;;;;;;;1.35;66.62;92466.63;2058782;69;20121;-79
2023/03/02 04:01:39;;;;;;;;;;;;;;;1.38;64.67;92459.97;2058104;69;20087;-78
2023/03/02 04:04:05;;;;;;;;;;;;;;;1.13;66.69;92462.56;2057773;69;20062;-79
2023/03/02 04:06:31;;;;;;;;;;;;;;;0.79;68.17;92460.19;2058039;69;20049;-77
2023/03/02 04:08:56;;;;;;;;;;;;;;;1.22;67.38;92467.56;2057772;69;20074;-77
2023/03/02 04:11:22;;;;;;;;;;;;;;;1.27;66.48;92461.81;2057878;69;20046;-78
2023/03/02 04:13:48;;;;;;;;;;;;;;;1.36;66.30;92454.22;2057764;69;20132;-77
2023/03/02 04:16:15;;;;;;;;;;;;;;;1.48;66.76;92455.31;2058775;69;20149;-78
2023/03/02 04:18:42;;;;;;;;;;;;;;;1.44;67.75;92450.16;2058530;69;20053;-80
2023/03/02 04:21:08;;;;;;;;;;;;;;;1.58;66.44;92447.16;2057863;69;20054;-80
2023/03/02 04:23:33;;;;;;;;;;;;;;;1.53;66.06;92448.84;2057818;69;20108;-79
2023/03/02 04:26:03;;;;;;;;;;;;;;;1.56;66.04;92449.75;2057848;69;20097;-80
2023/03/02 04:28:30;;;;;;;;;;;;;;;1.63;65.55;92441.41;2057696;69;20474;-80
2023/03/02 04:30:55;;;;;;;;;;;;;;;1.64;65.49;92451.22;2058297;69;20141;-79
2023/03/02 04:33:21;;;;;;;;;;;;;;;1.63;65.31;92455.28;2057658;69;20490;-80
2023/03/02 04:35:46;;;;;;;;;;;;;;;1.62;65.30;92451.03;2057876;69;20085;-80
2023/03/02 04:38:12;;;;;;;;;;;;;;;1.46;65.88;92457.91;2058178;69;20130;-80
2023/03/02 04:40:38;;;;;;;;;;;;;;;1.56;65.58;92464.38;2058149;69;20065;-78
2023/03/02 04:43:03;;;;;;;;;;;;;;;1.56;65.50;92466.38;2058644;69;20049;-78
2023/03/02 04:45:28;;;;;;;;;;;;;;;1.47;65.89;92462.91;2058698;69;20042;-78
2023/03/02 04:47:54;;;;;;;;;;;;;;;1.47;66.77;92462.91;2057750;69;20043;-78
2023/03/02 04:50:19;;;;;;;;;;;;;;;1.57;66.61;92465.84;2056040;69;20089;-78
2023/03/02 04:52:45;;;;;;;;;;;;;;;1.50;66.46;92474.91;2058700;69;20050;-78
2023/03/02 04:55:16;;;;;;;;;;;;;;;1.49;66.79;92467.91;2058605;69;20138;-79
2023/03/02 04:57:42;;;;;;;;;;;;;;;1.50;65.77;92467.31;2055437;69;20145;-78
2023/03/02 05:00:08;;;;;;;;;;;;;;;1.53;65.29;92465.50;2055245;70;20470;-74
2023/03/02 05:02:34;;;;;;;;;;;;;;;1.32;66.13;92459.41;2055265;69;20562;-78
2023/03/02 05:04:59;;;;;;;;;;;;;;;1.37;67.24;92461.97;2055345;69;20049;-76
2023/03/02 05:07:25;;;;;;;;;;;;;;;1.31;67.30;92469.78;2055436;69;20062;-78
2023/03/02 05:09:50;;;;;;;;;;;;;;;1.48;67.13;92467.16;2055525;69;20134;-80
2023/03/02 05:12:18;;;;;;;;;;;;;;;1.31;65.85;92458.69;2055459;69;20265;-79
2023/03/02 05:14:43;;;;;;;;;;;;;;;1.37;67.00;92461.97;2055322;69;20054;-79
2023/03/02 05:17:09;;;;;;;;;;;;;;;1.29;67.17;92449.44;2055217;69;20432;-75
2023/03/02 05:19:34;;;;;;;;;;;;;;;1.43;66.23;92457.00;2055408;69;20062;-80
2023/03/02 05:22:00;;;;;;;;;;;;;;;1.47;66.94;92462.91;2054503;69;20129;-79
2023/03/02 05:24:25;;;;;;;;;;;;;;;1.50;66.17;92458.28;2054225;70;20054;-79
2023/03/02 05:26:50;;;;;;;;;;;;;;;1.37;66.91;92461.25;2056753;69;20124;-79
2023/03/02 05:29:16;;;;;;;;;;;;;;;1.39;66.96;92458.66;2058220;69;20082;-77
2023/03/02 05:31:42;;;;;;;;;;;;;;;1.26;66.33;92462.38;2055902;69;20503;-80
2023/03/02 05:34:09;;;;;;;;;;;;;;;1.25;67.30;92460.91;2058118;69;20542;-80
2023/03/02 05:36:34;;;;;;;;;;;;;;;1.37;67.14;92464.03;2057897;69;20081;-79
2023/03/02 05:39:00;;;;;;;;;;;;;;;1.39;67.54;92464.97;2057747;69;20152;-80
2023/03/02 05:41:26;;;;;;;;;;;;;;;1.07;67.42;92459.25;2058128;69;20058;-77
2023/03/02 05:43:51;;;;;;;;;;;;;;;1.31;66.42;92466.25;2058184;69;20057;-79
2023/03/02 05:46:17;;;;;;;;;;;;;;;1.36;66.87;92465.31;2058178;69;20129;-79
2023/03/02 05:48:42;;;;;;;;;;;;;;;1.43;67.06;92461.81;2058073;69;20427;-80
2023/03/02 05:51:08;;;;;;;;;;;;;;;1.39;67.08;92458.66;2058263;69;20134;-78
2023/03/02 05:53:33;;;;;;;;;;;;;;;1.47;67.18;92459.41;2058377;69;20077;-80
2023/03/02 05:55:59;;;;;;;;;;;;;;;1.59;65.77;92463.25;2058662;69;20053;-80
2023/03/02 05:58:24;;;;;;;;;;;;;;;1.56;66.53;92461.59;2057723;69;20484;-79
2023/03/02 06:00:50;;;;;;;;;;;;;;;1.65;65.39;92460.25;2058276;69;20098;-81
2023/03/02 06:03:16;;;;;;;;;;;;;;;1.51;66.52;92465.28;2058622;69;20147;-78
2023/03/02 06:05:41;;;;;;;;;;;;;;;1.56;66.47;92472.69;2058630;69;20141;-80
2023/03/02 06:08:06;;;;;;;;;;;;;;;1.45;65.98;92446.06;2058369;69;20074;-79
2023/03/02 06:10:33;;;;;;;;;;;;;;;1.65;66.67;92466.56;2058494;69;20057;-80
2023/03/02 06:12:58;;;;;;;;;;;;;;;1.57;65.63;92465.84;2058369;69;20050;-78
2023/03/02 06:15:24;;;;;;;;;;;;;;;1.68;65.79;92473.03;2058365;69;20081;-78
2023/03/02 06:17:51;;;;;;;;;;;;;;;1.41;67.35;92469.94;2058288;69;20150;-78
2023/03/02 06:20:17;;;;;;;;;;;;;;;1.55;66.83;92473.97;2058377;69;20058;-77
2023/03/02 06:22:44;;;;;;;;;;;;;;;1.56;65.85;92467.16;2057901;69;20054;-80
2023/03/02 06:25:17;;;;;;;;;;;;;;;1.52;66.85;92472.34;2054839;69;20134;-79
2023/03/02 06:27:42;;;;;;;;;;;;;;;1.60;65.99;92472.31;2056680;69;20085;-77
2023/03/02 06:30:10;;;;;;;;;;;;;;;1.60;66.49;92469.53;2058298;69;20481;-80
2023/03/02 06:32:36;;;;;;;;;;;;;;;1.59;66.61;92474.34;2057872;69;20477;-79
2023/03/02 06:35:02;;;;;;;;;;;;;;;1.49;66.71;92488.06;2058293;69;20046;-79
2023/03/02 06:37:28;;;;;;;;;;;;;;;1.53;67.58;92482.13;2058041;69;20160;-79
2023/03/02 06:39:54;;;;;;;;;;;;;;;1.68;66.98;92473.78;2058373;69;20119;-79
2023/03/02 06:42:20;;;;;;;;;;;;;;;1.80;66.70;92482.44;2058479;69;20065;-80
2023/03/02 06:44:45;;;;;;;;;;;;;;;1.87;66.86;92476.13;2058768;69;20120;-79
2023/03/02 06:47:11;;;;;;;;;;;;;;;1.96;65.96;92474.78;2058420;69;20050;-79
2023/03/02 06:49:36;;;;;;;;;;;;;;;1.99;66.47;92476.47;2058276;69;20430;-79
2023/03/02 06:52:02;;;;;;;;;;;;;;;1.64;68.16;92483.75;2058012;69;20054;-80
2023/03/02 06:54:27;;;;;;;;;;;;;;;1.81;67.88;92483.91;2058034;69;20405;-79
2023/03/02 06:56:52;;;;;;;;;;;;;;;1.96;67.62;92477.56;2058323;69;20050;-78
2023/03/02 06:59:18;;;;;;;;;;;;;;;2.10;66.50;92489.19;2057600;69;20496;-79
2023/03/02 07:01:43;;;;;;;;;;;;;;;2.12;66.66;92483.81;2058201;69;20506;-78
2023/03/02 07:04:09;;;;;;;;;;;;;;;2.05;66.24;92482.53;2058084;69;20046;-78
2023/03/02 07:06:34;;;;;;;;;;;;;;;2.20;66.51;92482.50;2058219;69;20050;-77
2023/03/02 07:09:00;;;;;;;;;;;;;;;2.23;66.82;92488.94;2058395;69;20500;-80
2023/03/02 07:11:26;;;;;;;;;;;;;;;2.40;66.01;92483.50;2057984;69;20050;-80
2023/03/02 07:13:51;;;;;;;;;;;;;;;2.52;65.88;92487.34;2058047;69;20054;-79
2023/03/02 07:16:16;;;;;;;;;;;;;;;2.57;66.04;92493.22;2057728;69;20167;-79
2023/03/02 07:18:42;;;;;;;;;;;;;;;2.51;65.72;92499.00;2057790;69;20509;-79
2023/03/02 07:21:07;;;;;;;;;;;;;;;2.03;67.59;92499.03;2057772;69;20050;-78
2023/03/02 07:23:33;;;;;;;;;;;;;;;2.53;67.15;92501.97;2057919;69;20057;-79
2023/03/02 07:25:58;;;;;;;;;;;;;;;2.79;66.35;92498.69;2058804;69;20053;-79
2023/03/02 07:28:24;;;;;;;;;;;;;;;2.94;65.56;92503.41;2059528;69;20050;-80
2023/03/02 07:30:50;;;;;;;;;;;;;;;2.67;65.39;92503.19;2058077;69;20046;-80
2023/03/02 07:33:15;;;;;;;;;;;;;;;2.89;65.45;92500.84;2058326;69;20102;-79
2023/03/02 07:35:41;;;;;;;;;;;;;;;2.98;65.41;92514.88;2058296;69;20108;-79
2023/03/02 07:38:06;;;;;;;;;;;;;;;3.14;65.02;92509.94;2057985;69;20441;-80
2023/03/02 07:40:32;;;;;;;;;;;;;;;3.30;64.81;92522.44;2057682;69;20046;-77
2023/03/02 07:42:58;;;;;;;;;;;;;;;3.38;64.97;92518.84;2058316;69;20116;-80
2023/03/02 07:45:24;;;;;;;;;;;;;;;3.45;64.43;92518.78;2058517;69;20058;-77
2023/03/02 07:47:50;;;;;;;;;;;;;;;3.67;64.16;92522.69;2058070;69;20050;-78
2023/03/02 07:50:15;;;;;;;;;;;;;;;3.73;63.46;92525.97;2056953;69;20057;-78
2023/03/02 07:52:41;;;;;;;;;;;;;;;3.74;62.43;92527.44;2055499;69;20078;-76
2023/03/02 07:55:07;;;;;;;;;;;;;;;3.01;65.81;92524.84;2055675;69;20524;-79
2023/03/02 07:57:32;;;;;;;;;;;;;;;3.44;64.61;92531.22;2058695;69;20145;-81
2023/03/02 07:59:58;;;;;;;;;;;;;;;3.74;63.54;92532.28;2058669;69;20141;-79
2023/03/02 08:02:24;;;;;;;;;;;;;;;3.81;63.42;92529.41;2058902;69;20120;-80
2023/03/02 08:04:49;;;;;;;;;;;;;;;3.98;62.63;92539.81;2057929;69;20046;-80
2023/03/02 08:07:15;;;;;;;;;;;;;;;4.09;62.96;92535.84;2058276;69;20127;-76
2023/03/02 08:09:40;;;;;;;;;;;;;;;4.31;62.55;92532.06;2058519;69;20072;-80
2023/03/02 08:12:06;;;;;;;;;;;;;;;4.40;61.52;92529.91;2058279;69;20053;-80
2023/03/02 08:14:31;;;;;;;;;;;;;;;4.26;62.19;92535.09;2057743;69;20482;-79
2023/03/02 08:16:57;;;;;;;;;;;;;;;4.65;62.25;92527.03;2056597;69;20167;-80
2023/03/02 08:19:22;;;;;;;;;;;;;;;4.79;62.00;92533.72;2056521;69;20153;-77
2023/03/02 08:21:47;;;;;;;;;;;;;;;5.00;60.91;92527.69;2058156;69;20163;-79
2023/03/02 08:24:13;;;;;;;;;;;;;;;5.13;60.60;92524.50;2058663;69;20093;-80
2023/03/02 08:26:38;;;;;;;;;;;;;;;4.85;59.93;92529.34;2058618;69;20502;-78
2023/03/02 08:29:04;;;;;;;;;;;;;;;5.02;60.69;92527.84;2058594;69;20149;-76
2023/03/02 08:31:30;;;;;;;;;;;;;;;5.28;59.80;92535.47;2054595;69;20124;-78
2023/03/02 08:33:56;;;;;;;;;;;;;;;5.08;60.56;92529.03;2056506;69;20074;-82
2023/03/02 08:36:21;;;;;;;;;;;;;;;5.27;60.54;92516.50;2055944;69;20437;-75
2023/03/02 08:38:47;;;;;;;;;;;;;;;5.82;60.24;92509.50;2056663;69;20125;-77
2023/03/02 08:41:15;;;;;;;;;;;;;;;6.26;58.38;92520.44;2055131;69;20055;-78
2023/03/02 08:43:40;;;;;;;;;;;;;;;6.57;57.03;92520.59;2055218;69;20054;-79
2023/03/02 08:46:06;;;;;;;;;;;;;;;5.89;58.85;92522.56;2056116;69;22294;-77
2023/03/02 08:48:32;;;;;;;;;;;;;;;6.66;57.98;92521.19;2057002;69;20057;-74
2023/03/02 08:51:02;;;;;;;;;;;;;;;6.88;56.24;92512.34;2057118;69;20169;-78
2023/03/02 08:53:28;;;;;;;;;;;;;;;6.58;58.29;92508.09;2056523;69;20104;-78
2023/03/02 08:55:54;;;;;;;;;;;;;;;6.48;56.46;92512.97;2056930;69;20104;-74
2023/03/02 08:58:19;;;;;;;;;;;;;;;7.35;54.56;92515.59;2056981;69;20047;-78
2023/03/02 09:00:45;;;;;;;;;;;;;;;7.77;53.19;92510.69;2056956;69;20093;-77
2023/03/02 09:03:10;;;;;;;;;;;;;;;8.11;54.26;92512.31;2058331;69;20137;-78
2023/03/02 09:05:36;;;;;;;;;;;;;;;8.13;51.56;92504.00;2057847;69;20050;-79
2023/03/02 09:08:02;;;;;;;;;;;;;;;8.11;51.38;92501.09;2058114;69;20150;-78
2023/03/02 09:10:27;;;;;;;;;;;;;;;8.39;50.98;92488.94;2057586;69;20090;-79
2023/03/02 09:12:53;;;;;;;;;;;;;;;8.08;49.56;92500.19;2058613;69;20081;-79
2023/03/02 09:15:22;;;;;;;;;;;;;;;8.19;50.11;92489.66;2058602;69;20452;-79
2023/03/02 09:17:47;;;;;;;;;;;;;;;8.63;49.20;92486.97;2057615;69;20069;-78
2023/03/02 09:20:13;;;;;;;;;;;;;;;9.04;47.63;92483.22;2059484;69;20482;-79
2023/03/02 09:22:38;;;;;;;;;;;;;;;8.74;47.80;92488.34;2058267;69;20145;-78
2023/03/02 09:25:04;;;;;;;;;;;;;;;9.06;48.28;92489.66;2058200;69;20054;-76
2023/03/02 09:27:30;;;;;;;;;;;;;;;9.43;47.60;92484.22;2054508;69;20058;-77
2023/03/02 09:29:56;;;;;;;;;;;;;;;9.28;46.58;92487.53;2057754;69;20054;-79
2023/03/02 09:32:21;;;;;;;;;;;;;;;9.26;47.50;92481.78;2057843;69;20061;-78
2023/03/02 09:34:46;;;;;;;;;;;;;;;9.01;48.67;92481.59;2057838;69;20603;-78
2023/03/02 09:37:12;;;;;;;;;;;;;;;9.81;47.35;92482.31;2058273;69;20513;-77
2023/03/02 09:39:38;;;;;;;;;;;;;;;10.13;46.59;92477.16;2058431;69;20050;-79
2023/03/02 09:42:22;;;;;;;;;;;;;;;10.41;44.30;92473.19;2058752;69;20050;-77
2023/03/02 09:44:57;;;;;;;;;;;;;;;10.18;44.10;92479.56;2058590;69;20056;-80
2023/03/02 09:47:30;;;;;;;;;;;;;;;9.36;47.51;92476.78;2058409;69;20141;-79
2023/03/02 09:50:10;;;;;;;;;;;;;;;10.68;45.41;92477.53;2058321;69;20054;-80
2023/03/02 09:52:39;;;;;;;;;;;;;;;10.88;44.98;92477.91;2058659;69;20058;-79
2023/03/02 09:55:12;;;;;;;;;;;;;;;11.95;44.26;92473.81;2058097;69;20038;-80
2023/03/02 09:57:38;;;;;;;;;;;;;;;12.86;41.46;92479.78;2058629;69;20074;-79
2023/03/02 10:00:27;;;;;;;;;;;;;;;11.50;40.98;92479.91;2058425;69;20050;-78
2023/03/02 10:03:05;;;;;;;;;;;;;;;12.79;41.70;92475.94;2057336;69;20137;-81
2023/03/02 10:05:40;;;;;;;;;;;;;;;12.83;39.91;92481.78;2058905;69;20054;-81
2023/03/02 10:08:33;;;;;;;;;;;;;;;13.62;38.35;92478.44;2058804;69;20085;-80
2023/03/02 10:11:01;;;;;;;;;;;;;;;13.93;38.13;92474.91;2057828;69;20120;-78
2023/03/02 10:13:41;;;;;;;;;;;;;;;13.59;36.72;92474.06;2058559;69;20398;-82
2023/03/02 10:16:24;;;;;;;;;;;;;;;14.90;37.13;92466.31;2058801;69;20054;-82
2023/03/02 10:19:16;;;;;;;;;;;;;;;15.57;36.62;92466.13;2058387;69;20060;-80
2023/03/02 10:21:43;;;;;;;;;;;;;;;14.78;36.22;92460.13;2058154;69;20046;-82
2023/03/02 10:24:11;;;;;;;;;;;;;;;14.28;36.63;92465.81;2058508;69;20069;-84
2023/03/02 10:26:37;;;;;;;;;;;;;;;14.67;35.81;92468.22;2058415;69;20046;-81
2023/03/02 10:29:21;;;;;;;;;;;;;;;15.68;35.12;92455.94;2058409;69;20156;-81
2023/03/02 10:31:51;;;;;;;;;;;;;;;16.85;33.18;92458.00;2058386;69;20069;-80
2023/03/02 10:34:17;;;;;;;;;;;;;;;17.15;31.96;92459.00;2057776;69;20161;-80
2023/03/02 10:36:43;;;;;;;;;;;;;;;18.39;29.85;92459.22;2058938;69;20062;-81
2023/03/02 10:39:14;;;;;;;;;;;;;;;19.11;30.55;92458.28;2059745;69;20046;-80
2023/03/02 10:41:57;;;;;;;;;;;;;;;18.75;30.64;92456.66;2061504;69;20050;-80
2023/03/02 10:44:23;;;;;;;;;;;;;;;18.83;29.82;92452.56;2062272;69;20482;-80
2023/03/02 10:46:50;;;;;;;;;;;;;;;18.49;30.07;92444.50;2062209;69;20056;-81
2023/03/02 10:49:34;;;;;;;;;;;;;;;17.62;29.71;92446.25;2058635;69;20085;-79
2023/03/02 10:52:01;;;;;;;;;;;;;;;17.20;31.29;92437.13;2058534;69;20089;-80
2023/03/02 10:54:28;;;;;;;;;;;;;;;18.76;28.64;92431.72;2058584;69;20045;-79
2023/03/02 10:56:56;;;;;;;;;;;;;;;20.45;27.88;92434.91;2058621;69;20444;-80
2023/03/02 10:59:24;;;;;;;;;;;;;;;19.41;26.62;92433.34;2058563;69;20053;-80
2023/03/02 11:02:09;;;;;;;;;;;;;;;20.23;26.21;92432.31;2059799;69;20205;-79
2023/03/02 11:04:34;;;;;;;;;;;;;;;23.13;24.60;92428.22;2059611;69;20057;-80
2023/03/02 11:07:26;;;;;;;;;;;;;;;21.72;24.33;92423.59;2059361;69;20046;-80
2023/03/02 11:10:05;;;;;;;;;;;;;;;23.02;23.90;92428.13;2058705;69;20108;-80
2023/03/02 11:12:34;;;;;;;;;;;;;;;24.83;22.70;92422.94;2059068;69;20046;-80
2023/03/02 11:15:09;;;;;;;;;;;;;;;23.92;21.99;92423.19;2058526;69;20061;-78
2023/03/02 11:17:36;;;;;;;;;;;;;;;25.44;22.09;92410.84;2058385;69;20053;-79
2023/03/02 11:20:02;;;;;;;;;;;;;;;24.25;22.12;92418.34;2058451;69;20140;-76
2023/03/02 11:22:43;;;;;;;;;;;;;;;23.91;22.94;92421.72;2059088;69;20074;-78
2023/03/02 11:25:15;;;;;;;;;;;;;;;23.40;21.92;92418.44;2059053;69;20050;-77
2023/03/02 11:27:42;;;;;;;;;;;;;;;25.03;20.96;92413.63;2059095;69;20058;-78
2023/03/02 11:30:14;;;;;;;;;;;;;;;28.17;18.36;92420.56;2058963;69;20153;-75
2023/03/02 11:32:55;;;;;;;;;;;;;;;29.78;18.29;92412.84;2058969;69;20053;-75
2023/03/02 11:35:30;;;;;;;;;;;;;;;28.66;17.61;92422.28;2058887;69;20497;-76
2023/03/02 11:38:02;;;;;;;;;;;;;;;26.04;19.59;92394.97;2059101;69;20489;-76
2023/03/02 11:40:50;;;;;;;;;;;;;;;26.96;19.12;92403.34;2059034;69;20066;-76
2023/03/02 11:43:15;;;;;;;;;;;;;;;31.34;16.70;92402.03;2058925;69;20076;-76
2023/03/02 11:45:45;;;;;;;;;;;;;;;30.09;16.43;92398.53;2059088;69;20058;-78
2023/03/02 11:48:13;;;;;;;;;;;;;;;28.25;18.50;92399.53;2058752;69;20046;-78
2023/03/02 11:50:57;;;;;;;;;;;;;;;26.22;18.60;92390.63;2058778;69;20054;-75
2023/03/02 11:53:26;;;;;;;;;;;;;;;29.23;16.53;92392.59;2058788;69;20058;-79
2023/03/02 11:55:51;;;;;;;;;;;;;;;32.03;15.47;92394.59;2060064;69;20049;-77
2023/03/02 11:58:18;;;;;;;;;;;;;;;31.06;16.26;92392.38;2062098;69;20054;-77
2023/03/02 12:00:44;;;;;;;;;;;;;;;32.70;15.27;92392.16;2061930;69;20073;-77
2023/03/02 12:03:15;;;;;;;;;;;;;;;31.41;14.83;92388.75;2061848;69;20041;-78
2023/03/02 12:05:45;;;;;;;;;;;;;;;28.05;16.71;92380.91;2062008;69;20425;-77
2023/03/02 12:08:14;;;;;;;;;;;;;;;31.07;16.05;92381.50;2062376;69;20125;-76
2023/03/02 12:10:41;;;;;;;;;;;;;;;27.25;16.97;92366.34;2062035;69;20042;-76
2023/03/02 12:13:12;;;;;;;;;;;;;;;29.36;16.35;92370.69;2062001;69;20049;-76
2023/03/02 12:15:42;;;;;;;;;;;;;;;29.35;15.91;92372.16;2061991;69;20202;-77
2023/03/02 12:18:15;;;;;;;;;;;;;;;32.29;14.89;92369.91;2061895;69;20069;-79
2023/03/02 12:20:43;;;;;;;;;;;;;;;32.99;14.33;92370.97;2062133;69;20053;-77
2023/03/02 12:23:20;;;;;;;;;;;;;;;33.29;14.94;92375.91;2061941;69;20053;-77
2023/03/02 12:25:50;;;;;;;;;;;;;;;27.67;16.44;92346.53;2062049;69;20139;-77
2023/03/02 12:28:30;;;;;;;;;;;;;;;29.28;16.24;92350.53;2062029;69;20072;-77
2023/03/02 12:31:00;;;;;;;;;;;;;;;30.31;15.87;92335.78;2061417;69;20267;-77
2023/03/02 12:33:25;;;;;;;;;;;;;;;29.88;15.68;92345.25;2062030;69;20049;-80
2023/03/02 12:36:02;;;;;;;;;;;;;;;30.79;14.38;92342.09;2061883;69;20119;-76
2023/03/02 12:38:32;;;;;;;;;;;;;;;30.71;14.68;92340.09;2062023;69;20086;-79
2023/03/02 12:41:20;;;;;;;;;;;;;;;32.41;13.97;92339.06;2055842;69;20113;-76
2023/03/02 12:43:57;;;;;;;;;;;;;;;31.48;13.99;92331.91;2055311;69;20549;-79
2023/03/02 12:46:29;;;;;;;;;;;;;;;30.71;15.30;92328.47;2055408;69;20086;-79
2023/03/02 12:49:01;;;;;;;;;;;;;;;29.62;15.26;92323.91;2055239;69;20050;-80
2023/03/02 12:51:28;;;;;;;;;;;;;;;28.69;16.61;92323.06;2055421;69;20119;-77
2023/03/02 12:54:11;;;;;;;;;;;;;;;27.63;16.67;92327.06;2055543;69;20058;-79
2023/03/02 12:56:36;;;;;;;;;;;;;;;29.48;15.69;92323.41;2055204;69;20060;-78
2023/03/02 12:59:03;;;;;;;;;;;;;;;27.85;16.35;92321.06;2055130;70;20049;-80
2023/03/02 13:01:29;;;;;;;;;;;;;;;26.46;17.42;92314.81;2055554;69;20077;-76